sensor_id;sensor_type;location;lat;lon;timestamp;P1;durP1;ratioP1;P2;durP2;ratioP2
56043;SDS011;41912;51.022;3.664;2022-09-24T00:00:43;24.70;;;15.70;;
56043;SDS011;41912;51.022;3.664;2022-09-24T00:03:10;20.08;;;14.68;;
56043;SDS011;41912;51.022;3.664;2022-09-24T00:05:39;23.20;;;15.40;;
56043;SDS011;41912;51.022;3.664;2022-09-24T00:08:06;25.90;;;14.50;;
56043;SDS011;41912;51.022;3.664;2022-09-24T00:10:35;22.48;;;14.13;;
56043;SDS011;41912;51.022;3.664;2022-09-24T00:13:05;23.73;;;13.55;;
56043;SDS011;41912;51.022;3.664;2022-09-24T00:15:36;21.33;;;14.10;;
56043;SDS011;41912;51.022;3.664;2022-09-24T00:18:03;22.33;;;13.90;;
56043;SDS011;41912;51.022;3.664;2022-09-24T00:20:29;20.63;;;13.00;;
56043;SDS011;41912;51.022;3.664;2022-09-24T00:22:55;25.10;;;13.10;;
56043;SDS011;41912;51.022;3.664;2022-09-24T00:25:21;25.15;;;12.90;;
56043;SDS011;41912;51.022;3.664;2022-09-24T00:28:05;19.00;;;12.80;;
56043;SDS011;41912;51.022;3.664;2022-09-24T00:30:31;20.48;;;11.90;;
56043;SDS011;41912;51.022;3.664;2022-09-24T00:32:57;18.38;;;11.82;;
56043;SDS011;41912;51.022;3.664;2022-09-24T00:35:22;20.48;;;12.90;;
56043;SDS011;41912;51.022;3.664;2022-09-24T00:37:49;20.13;;;12.65;;
56043;SDS011;41912;51.022;3.664;2022-09-24T00:40:14;18.63;;;11.95;;
56043;SDS011;41912;51.022;3.664;2022-09-24T00:42:40;20.67;;;11.60;;
56043;SDS011;41912;51.022;3.664;2022-09-24T00:45:07;17.20;;;11.45;;
56043;SDS011;41912;51.022;3.664;2022-09-24T00:47:35;16.17;;;11.05;;
56043;SDS011;41912;51.022;3.664;2022-09-24T00:52:56;21.98;;;10.52;;
56043;SDS011;41912;51.022;3.664;2022-09-24T00:55:26;17.25;;;10.70;;
56043;SDS011;41912;51.022;3.664;2022-09-24T00:57:54;18.45;;;10.75;;
56043;SDS011;41912;51.022;3.664;2022-09-24T01:00:22;14.00;;;9.27;;
56043;SDS011;41912;51.022;3.664;2022-09-24T01:02:48;13.60;;;9.32;;
56043;SDS011;41912;51.022;3.664;2022-09-24T01:05:20;18.52;;;9.27;;
56043;SDS011;41912;51.022;3.664;2022-09-24T01:07:46;18.15;;;9.00;;
56043;SDS011;41912;51.022;3.664;2022-09-24T01:10:13;12.23;;;8.38;;
56043;SDS011;41912;51.022;3.664;2022-09-24T01:13:02;13.70;;;9.00;;
56043;SDS011;41912;51.022;3.664;2022-09-24T01:34:59;9.55;;;5.68;;
56043;SDS011;41912;51.022;3.664;2022-09-24T01:37:37;9.88;;;6.25;;
56043;SDS011;41912;51.022;3.664;2022-09-24T01:40:06;15.10;;;6.50;;
56043;SDS011;41912;51.022;3.664;2022-09-24T01:42:35;15.98;;;6.93;;
56043;SDS011;41912;51.022;3.664;2022-09-24T01:45:04;16.40;;;7.18;;
56043;SDS011;41912;51.022;3.664;2022-09-24T01:47:32;8.98;;;6.30;;
56043;SDS011;41912;51.022;3.664;2022-09-24T01:50:04;12.13;;;5.50;;
56043;SDS011;41912;51.022;3.664;2022-09-24T01:52:33;10.00;;;5.72;;
56043;SDS011;41912;51.022;3.664;2022-09-24T01:55:05;15.57;;;6.88;;
56043;SDS011;41912;51.022;3.664;2022-09-24T01:58:07;11.85;;;7.18;;
56043;SDS011;41912;51.022;3.664;2022-09-24T02:00:30;16.55;;;6.82;;
56043;SDS011;41912;51.022;3.664;2022-09-24T02:03:02;12.65;;;6.47;;
56043;SDS011;41912;51.022;3.664;2022-09-24T02:08:26;11.25;;;6.38;;
56043;SDS011;41912;51.022;3.664;2022-09-24T02:11:02;14.02;;;6.80;;
56043;SDS011;41912;51.022;3.664;2022-09-24T02:13:40;17.25;;;6.13;;
56043;SDS011;41912;51.022;3.664;2022-09-24T02:18:39;9.48;;;5.72;;
56043;SDS011;41912;51.022;3.664;2022-09-24T02:21:11;10.90;;;6.20;;
56043;SDS011;41912;51.022;3.664;2022-09-24T02:23:41;14.90;;;5.82;;
56043;SDS011;41912;51.022;3.664;2022-09-24T02:26:11;10.20;;;6.13;;
56043;SDS011;41912;51.022;3.664;2022-09-24T02:28:37;10.75;;;5.78;;
56043;SDS011;41912;51.022;3.664;2022-09-24T02:31:12;10.48;;;6.40;;
56043;SDS011;41912;51.022;3.664;2022-09-24T02:33:42;10.20;;;6.55;;
56043;SDS011;41912;51.022;3.664;2022-09-24T02:36:28;7.68;;;5.50;;
56043;SDS011;41912;51.022;3.664;2022-09-24T02:38:55;10.15;;;6.07;;
56043;SDS011;41912;51.022;3.664;2022-09-24T02:41:21;11.13;;;5.82;;
56043;SDS011;41912;51.022;3.664;2022-09-24T02:43:49;12.70;;;5.63;;
56043;SDS011;41912;51.022;3.664;2022-09-24T02:46:15;14.25;;;6.47;;
56043;SDS011;41912;51.022;3.664;2022-09-24T02:48:41;15.48;;;6.97;;
56043;SDS011;41912;51.022;3.664;2022-09-24T02:51:06;9.68;;;5.90;;
56043;SDS011;41912;51.022;3.664;2022-09-24T02:53:32;13.13;;;6.97;;
56043;SDS011;41912;51.022;3.664;2022-09-24T02:55:58;12.00;;;6.57;;
56043;SDS011;41912;51.022;3.664;2022-09-24T02:58:24;10.88;;;7.45;;
56043;SDS011;41912;51.022;3.664;2022-09-24T03:00:51;12.25;;;6.93;;
56043;SDS011;41912;51.022;3.664;2022-09-24T03:03:17;10.32;;;7.10;;
56043;SDS011;41912;51.022;3.664;2022-09-24T03:05:43;11.75;;;6.65;;
56043;SDS011;41912;51.022;3.664;2022-09-24T03:08:10;14.63;;;8.30;;
56043;SDS011;41912;51.022;3.664;2022-09-24T03:10:35;10.45;;;7.03;;
56043;SDS011;41912;51.022;3.664;2022-09-24T03:13:01;13.95;;;6.47;;
56043;SDS011;41912;51.022;3.664;2022-09-24T03:15:26;12.15;;;6.53;;
56043;SDS011;41912;51.022;3.664;2022-09-24T03:17:53;12.75;;;6.72;;
56043;SDS011;41912;51.022;3.664;2022-09-24T03:20:19;13.00;;;6.78;;
56043;SDS011;41912;51.022;3.664;2022-09-24T03:22:48;12.93;;;7.25;;
56043;SDS011;41912;51.022;3.664;2022-09-24T03:25:17;11.00;;;6.25;;
56043;SDS011;41912;51.022;3.664;2022-09-24T03:27:43;11.48;;;6.85;;
56043;SDS011;41912;51.022;3.664;2022-09-24T03:30:09;13.85;;;6.35;;
56043;SDS011;41912;51.022;3.664;2022-09-24T03:32:54;8.73;;;5.60;;
56043;SDS011;41912;51.022;3.664;2022-09-24T03:35:20;10.52;;;5.38;;
56043;SDS011;41912;51.022;3.664;2022-09-24T03:37:46;11.30;;;5.32;;
56043;SDS011;41912;51.022;3.664;2022-09-24T03:40:11;9.00;;;5.82;;
56043;SDS011;41912;51.022;3.664;2022-09-24T03:42:37;10.48;;;6.22;;
56043;SDS011;41912;51.022;3.664;2022-09-24T03:45:03;11.55;;;6.35;;
56043;SDS011;41912;51.022;3.664;2022-09-24T03:47:30;8.73;;;5.78;;
56043;SDS011;41912;51.022;3.664;2022-09-24T03:49:56;10.70;;;6.28;;
56043;SDS011;41912;51.022;3.664;2022-09-24T03:52:22;8.85;;;5.25;;
56043;SDS011;41912;51.022;3.664;2022-09-24T03:54:48;14.75;;;6.30;;
56043;SDS011;41912;51.022;3.664;2022-09-24T03:57:14;13.15;;;6.57;;
56043;SDS011;41912;51.022;3.664;2022-09-24T03:59:40;9.23;;;6.13;;
56043;SDS011;41912;51.022;3.664;2022-09-24T04:02:07;20.33;;;6.70;;
56043;SDS011;41912;51.022;3.664;2022-09-24T04:04:33;10.90;;;6.82;;
56043;SDS011;41912;51.022;3.664;2022-09-24T04:06:59;12.13;;;7.25;;
56043;SDS011;41912;51.022;3.664;2022-09-24T04:09:24;10.73;;;6.38;;
56043;SDS011;41912;51.022;3.664;2022-09-24T04:11:50;8.63;;;6.60;;
56043;SDS011;41912;51.022;3.664;2022-09-24T04:14:19;15.07;;;6.70;;
56043;SDS011;41912;51.022;3.664;2022-09-24T04:16:45;10.40;;;6.63;;
56043;SDS011;41912;51.022;3.664;2022-09-24T04:19:11;11.07;;;6.35;;
56043;SDS011;41912;51.022;3.664;2022-09-24T04:21:40;12.10;;;6.32;;
56043;SDS011;41912;51.022;3.664;2022-09-24T04:24:06;16.00;;;7.97;;
56043;SDS011;41912;51.022;3.664;2022-09-24T04:26:32;11.52;;;6.82;;
56043;SDS011;41912;51.022;3.664;2022-09-24T04:28:58;10.38;;;7.20;;
56043;SDS011;41912;51.022;3.664;2022-09-24T04:31:24;10.60;;;6.80;;
56043;SDS011;41912;51.022;3.664;2022-09-24T04:33:51;11.77;;;7.20;;
56043;SDS011;41912;51.022;3.664;2022-09-24T04:36:17;14.80;;;6.95;;
56043;SDS011;41912;51.022;3.664;2022-09-24T04:38:43;10.93;;;6.88;;
56043;SDS011;41912;51.022;3.664;2022-09-24T04:41:10;14.50;;;7.53;;
56043;SDS011;41912;51.022;3.664;2022-09-24T04:43:37;8.70;;;6.05;;
56043;SDS011;41912;51.022;3.664;2022-09-24T04:46:03;12.35;;;6.63;;
56043;SDS011;41912;51.022;3.664;2022-09-24T04:48:29;14.88;;;6.40;;
56043;SDS011;41912;51.022;3.664;2022-09-24T04:50:56;10.80;;;5.90;;
56043;SDS011;41912;51.022;3.664;2022-09-24T04:53:21;9.55;;;5.90;;
56043;SDS011;41912;51.022;3.664;2022-09-24T04:55:48;9.40;;;5.75;;
56043;SDS011;41912;51.022;3.664;2022-09-24T04:58:13;8.38;;;5.10;;
56043;SDS011;41912;51.022;3.664;2022-09-24T05:00:39;15.50;;;6.57;;
56043;SDS011;41912;51.022;3.664;2022-09-24T05:03:06;12.07;;;6.43;;
56043;SDS011;41912;51.022;3.664;2022-09-24T05:05:32;12.10;;;5.93;;
56043;SDS011;41912;51.022;3.664;2022-09-24T05:07:58;8.48;;;5.50;;
56043;SDS011;41912;51.022;3.664;2022-09-24T05:10:25;12.00;;;6.18;;
56043;SDS011;41912;51.022;3.664;2022-09-24T05:12:52;9.77;;;5.50;;
56043;SDS011;41912;51.022;3.664;2022-09-24T05:15:18;9.98;;;6.00;;
56043;SDS011;41912;51.022;3.664;2022-09-24T05:17:44;12.45;;;5.88;;
56043;SDS011;41912;51.022;3.664;2022-09-24T05:20:10;8.85;;;5.43;;
56043;SDS011;41912;51.022;3.664;2022-09-24T05:22:43;9.02;;;4.88;;
56043;SDS011;41912;51.022;3.664;2022-09-24T05:25:10;8.55;;;5.43;;
56043;SDS011;41912;51.022;3.664;2022-09-24T05:27:42;8.60;;;5.65;;
56043;SDS011;41912;51.022;3.664;2022-09-24T05:30:12;8.18;;;5.00;;
56043;SDS011;41912;51.022;3.664;2022-09-24T05:32:39;8.80;;;5.82;;
56043;SDS011;41912;51.022;3.664;2022-09-24T05:35:04;10.70;;;5.50;;
56043;SDS011;41912;51.022;3.664;2022-09-24T05:37:32;8.38;;;5.15;;
56043;SDS011;41912;51.022;3.664;2022-09-24T05:39:59;10.43;;;5.40;;
56043;SDS011;41912;51.022;3.664;2022-09-24T05:42:45;10.35;;;5.45;;
56043;SDS011;41912;51.022;3.664;2022-09-24T05:45:11;10.20;;;5.60;;
56043;SDS011;41912;51.022;3.664;2022-09-24T05:47:41;8.35;;;5.45;;
56043;SDS011;41912;51.022;3.664;2022-09-24T05:50:08;11.52;;;5.20;;
56043;SDS011;41912;51.022;3.664;2022-09-24T05:52:33;9.00;;;5.60;;
56043;SDS011;41912;51.022;3.664;2022-09-24T05:54:59;11.52;;;4.82;;
56043;SDS011;41912;51.022;3.664;2022-09-24T05:57:24;9.02;;;5.28;;
56043;SDS011;41912;51.022;3.664;2022-09-24T05:59:50;7.32;;;4.72;;
56043;SDS011;41912;51.022;3.664;2022-09-24T06:02:17;10.77;;;5.30;;
56043;SDS011;41912;51.022;3.664;2022-09-24T06:04:42;10.63;;;5.68;;
56043;SDS011;41912;51.022;3.664;2022-09-24T06:07:08;10.18;;;4.97;;
56043;SDS011;41912;51.022;3.664;2022-09-24T06:09:35;10.52;;;5.03;;
56043;SDS011;41912;51.022;3.664;2022-09-24T06:12:00;9.90;;;4.47;;
56043;SDS011;41912;51.022;3.664;2022-09-24T06:14:26;8.55;;;5.50;;
56043;SDS011;41912;51.022;3.664;2022-09-24T06:16:52;13.77;;;5.13;;
56043;SDS011;41912;51.022;3.664;2022-09-24T06:19:18;6.82;;;4.93;;
56043;SDS011;41912;51.022;3.664;2022-09-24T06:21:44;8.77;;;5.13;;
56043;SDS011;41912;51.022;3.664;2022-09-24T06:24:09;11.82;;;5.00;;
56043;SDS011;41912;51.022;3.664;2022-09-24T06:26:36;14.73;;;5.78;;
56043;SDS011;41912;51.022;3.664;2022-09-24T06:29:02;8.82;;;5.95;;
56043;SDS011;41912;51.022;3.664;2022-09-24T06:31:27;11.20;;;5.95;;
56043;SDS011;41912;51.022;3.664;2022-09-24T06:33:53;12.60;;;6.65;;
56043;SDS011;41912;51.022;3.664;2022-09-24T06:36:19;10.82;;;6.93;;
56043;SDS011;41912;51.022;3.664;2022-09-24T06:38:48;10.07;;;6.15;;
56043;SDS011;41912;51.022;3.664;2022-09-24T06:41:15;10.73;;;6.70;;
56043;SDS011;41912;51.022;3.664;2022-09-24T06:43:40;16.58;;;7.10;;
56043;SDS011;41912;51.022;3.664;2022-09-24T06:46:06;12.05;;;6.97;;
56043;SDS011;41912;51.022;3.664;2022-09-24T06:48:31;13.13;;;6.30;;
56043;SDS011;41912;51.022;3.664;2022-09-24T06:50:57;11.05;;;7.43;;
56043;SDS011;41912;51.022;3.664;2022-09-24T06:53:23;10.80;;;7.57;;
56043;SDS011;41912;51.022;3.664;2022-09-24T06:55:49;13.13;;;7.85;;
56043;SDS011;41912;51.022;3.664;2022-09-24T06:58:18;15.40;;;7.85;;
56043;SDS011;41912;51.022;3.664;2022-09-24T07:00:51;13.35;;;7.88;;
56043;SDS011;41912;51.022;3.664;2022-09-24T07:03:26;13.98;;;8.25;;
56043;SDS011;41912;51.022;3.664;2022-09-24T07:05:53;13.73;;;8.43;;
56043;SDS011;41912;51.022;3.664;2022-09-24T07:08:19;12.38;;;7.28;;
56043;SDS011;41912;51.022;3.664;2022-09-24T07:10:46;15.68;;;8.77;;
56043;SDS011;41912;51.022;3.664;2022-09-24T07:13:18;13.38;;;8.88;;
56043;SDS011;41912;51.022;3.664;2022-09-24T07:15:48;14.02;;;8.98;;
56043;SDS011;41912;51.022;3.664;2022-09-24T07:18:15;13.85;;;7.75;;
56043;SDS011;41912;51.022;3.664;2022-09-24T07:20:41;15.65;;;9.65;;
56043;SDS011;41912;51.022;3.664;2022-09-24T07:23:08;13.77;;;9.20;;
56043;SDS011;41912;51.022;3.664;2022-09-24T07:25:35;14.57;;;9.43;;
56043;SDS011;41912;51.022;3.664;2022-09-24T07:30:32;19.40;;;10.77;;
56043;SDS011;41912;51.022;3.664;2022-09-24T07:32:58;18.83;;;11.48;;
56043;SDS011;41912;51.022;3.664;2022-09-24T07:35:24;18.27;;;11.15;;
56043;SDS011;41912;51.022;3.664;2022-09-24T07:40:24;18.52;;;12.23;;
56043;SDS011;41912;51.022;3.664;2022-09-24T07:42:50;17.10;;;11.73;;
56043;SDS011;41912;51.022;3.664;2022-09-24T07:45:18;17.45;;;12.18;;
56043;SDS011;41912;51.022;3.664;2022-09-24T07:47:44;24.10;;;11.73;;
56043;SDS011;41912;51.022;3.664;2022-09-24T07:50:09;20.02;;;12.90;;
56043;SDS011;41912;51.022;3.664;2022-09-24T07:52:37;18.95;;;12.65;;
56043;SDS011;41912;51.022;3.664;2022-09-24T07:55:03;19.88;;;13.20;;
56043;SDS011;41912;51.022;3.664;2022-09-24T07:57:30;25.55;;;14.48;;
56043;SDS011;41912;51.022;3.664;2022-09-24T07:59:55;19.17;;;13.57;;
56043;SDS011;41912;51.022;3.664;2022-09-24T08:02:21;21.67;;;13.15;;
56043;SDS011;41912;51.022;3.664;2022-09-24T08:04:47;21.50;;;13.18;;
56043;SDS011;41912;51.022;3.664;2022-09-24T08:07:13;23.13;;;13.90;;
56043;SDS011;41912;51.022;3.664;2022-09-24T08:09:39;20.05;;;13.38;;
56043;SDS011;41912;51.022;3.664;2022-09-24T08:12:05;22.08;;;13.55;;
56043;SDS011;41912;51.022;3.664;2022-09-24T08:14:31;22.05;;;14.02;;
56043;SDS011;41912;51.022;3.664;2022-09-24T08:16:57;21.05;;;14.48;;
56043;SDS011;41912;51.022;3.664;2022-09-24T08:19:22;21.13;;;14.40;;
56043;SDS011;41912;51.022;3.664;2022-09-24T08:21:48;21.63;;;14.35;;
56043;SDS011;41912;51.022;3.664;2022-09-24T08:24:14;20.95;;;14.88;;
56043;SDS011;41912;51.022;3.664;2022-09-24T08:26:40;21.33;;;15.60;;
56043;SDS011;41912;51.022;3.664;2022-09-24T08:29:06;19.13;;;14.45;;
56043;SDS011;41912;51.022;3.664;2022-09-24T08:31:32;20.08;;;15.30;;
56043;SDS011;41912;51.022;3.664;2022-09-24T08:34:01;26.05;;;15.30;;
56043;SDS011;41912;51.022;3.664;2022-09-24T08:36:27;28.35;;;16.23;;
56043;SDS011;41912;51.022;3.664;2022-09-24T08:38:53;23.23;;;16.20;;
56043;SDS011;41912;51.022;3.664;2022-09-24T08:54:44;29.80;;;16.67;;
56043;SDS011;41912;51.022;3.664;2022-09-24T08:57:13;20.52;;;15.52;;
56043;SDS011;41912;51.022;3.664;2022-09-24T08:59:42;25.80;;;16.80;;
56043;SDS011;41912;51.022;3.664;2022-09-24T09:05:01;23.10;;;16.67;;
56043;SDS011;41912;51.022;3.664;2022-09-24T09:08:00;25.48;;;16.10;;
56043;SDS011;41912;51.022;3.664;2022-09-24T09:10:33;25.65;;;16.30;;
56043;SDS011;41912;51.022;3.664;2022-09-24T09:15:40;24.13;;;16.58;;
56043;SDS011;41912;51.022;3.664;2022-09-24T09:18:14;20.33;;;15.43;;
56043;SDS011;41912;51.022;3.664;2022-09-24T09:20:50;22.02;;;15.35;;
56043;SDS011;41912;51.022;3.664;2022-09-24T09:23:33;24.05;;;15.32;;
56043;SDS011;41912;51.022;3.664;2022-09-24T09:26:07;21.45;;;15.65;;
56043;SDS011;41912;51.022;3.664;2022-09-24T09:28:35;20.63;;;15.45;;
56043;SDS011;41912;51.022;3.664;2022-09-24T09:33:53;21.85;;;15.20;;
56043;SDS011;41912;51.022;3.664;2022-09-24T09:42:32;22.75;;;15.38;;
56043;SDS011;41912;51.022;3.664;2022-09-24T09:45:25;20.73;;;14.60;;
56043;SDS011;41912;51.022;3.664;2022-09-24T09:47:57;23.85;;;15.70;;
56043;SDS011;41912;51.022;3.664;2022-09-24T09:50:26;21.60;;;15.15;;
56043;SDS011;41912;51.022;3.664;2022-09-24T09:53:01;19.17;;;13.90;;
56043;SDS011;41912;51.022;3.664;2022-09-24T09:55:35;18.83;;;13.27;;
56043;SDS011;41912;51.022;3.664;2022-09-24T10:00:39;15.50;;;10.82;;
56043;SDS011;41912;51.022;3.664;2022-09-24T10:03:19;15.35;;;8.90;;
56043;SDS011;41912;51.022;3.664;2022-09-24T10:06:01;13.95;;;9.20;;
56043;SDS011;41912;51.022;3.664;2022-09-24T10:08:29;15.55;;;9.10;;
56043;SDS011;41912;51.022;3.664;2022-09-24T10:10:56;12.57;;;8.60;;
56043;SDS011;41912;51.022;3.664;2022-09-24T10:13:23;12.60;;;8.82;;
56043;SDS011;41912;51.022;3.664;2022-09-24T10:15:53;14.98;;;7.03;;
56043;SDS011;41912;51.022;3.664;2022-09-24T10:20:58;14.13;;;6.32;;
56043;SDS011;41912;51.022;3.664;2022-09-24T10:23:32;12.65;;;6.45;;
56043;SDS011;41912;51.022;3.664;2022-09-24T10:25:59;10.80;;;5.68;;
56043;SDS011;41912;51.022;3.664;2022-09-24T10:28:26;9.93;;;5.75;;
56043;SDS011;41912;51.022;3.664;2022-09-24T10:33:37;12.15;;;5.30;;
56043;SDS011;41912;51.022;3.664;2022-09-24T10:36:21;15.23;;;5.68;;
56043;SDS011;41912;51.022;3.664;2022-09-24T10:38:48;14.73;;;5.53;;
56043;SDS011;41912;51.022;3.664;2022-09-24T10:41:27;7.55;;;4.60;;
56043;SDS011;41912;51.022;3.664;2022-09-24T10:43:55;12.82;;;5.28;;
56043;SDS011;41912;51.022;3.664;2022-09-24T10:52:13;15.27;;;4.22;;
56043;SDS011;41912;51.022;3.664;2022-09-24T11:00:48;13.52;;;3.28;;
56043;SDS011;41912;51.022;3.664;2022-09-24T11:03:35;11.60;;;3.25;;
56043;SDS011;41912;51.022;3.664;2022-09-24T11:06:12;16.27;;;3.03;;
56043;SDS011;41912;51.022;3.664;2022-09-24T11:17:07;10.00;;;2.00;;
56043;SDS011;41912;51.022;3.664;2022-09-24T11:25:10;7.33;;;2.80;;
56043;SDS011;41912;51.022;3.664;2022-09-24T11:28:18;5.10;;;2.20;;
56043;SDS011;41912;51.022;3.664;2022-09-24T11:47:51;6.97;;;2.28;;
56043;SDS011;41912;51.022;3.664;2022-09-24T11:56:12;8.30;;;1.80;;
56043;SDS011;41912;51.022;3.664;2022-09-24T11:58:45;11.32;;;1.77;;
56043;SDS011;41912;51.022;3.664;2022-09-24T12:01:20;11.70;;;2.83;;
56043;SDS011;41912;51.022;3.664;2022-09-24T12:06:24;5.97;;;2.15;;
56043;SDS011;41912;51.022;3.664;2022-09-24T12:08:56;9.00;;;2.03;;
56043;SDS011;41912;51.022;3.664;2022-09-24T12:11:29;8.68;;;1.80;;
56043;SDS011;41912;51.022;3.664;2022-09-24T12:14:47;9.13;;;1.85;;
56043;SDS011;41912;51.022;3.664;2022-09-24T12:16:50;10.23;;;2.28;;
56043;SDS011;41912;51.022;3.664;2022-09-24T12:19:21;9.25;;;1.80;;
56043;SDS011;41912;51.022;3.664;2022-09-24T12:21:52;12.02;;;2.17;;
56043;SDS011;41912;51.022;3.664;2022-09-24T12:24:23;9.27;;;2.35;;
56043;SDS011;41912;51.022;3.664;2022-09-24T12:32:49;7.60;;;1.75;;
56043;SDS011;41912;51.022;3.664;2022-09-24T12:35:21;10.50;;;1.73;;
56043;SDS011;41912;51.022;3.664;2022-09-24T12:38:39;8.93;;;2.08;;
56043;SDS011;41912;51.022;3.664;2022-09-24T12:44:09;5.28;;;1.98;;
56043;SDS011;41912;51.022;3.664;2022-09-24T12:46:49;7.70;;;1.80;;
56043;SDS011;41912;51.022;3.664;2022-09-24T12:54:53;11.45;;;1.85;;
56043;SDS011;41912;51.022;3.664;2022-09-24T12:57:31;11.75;;;2.00;;
56043;SDS011;41912;51.022;3.664;2022-09-24T12:59:59;11.23;;;1.92;;
56043;SDS011;41912;51.022;3.664;2022-09-24T13:05:48;10.50;;;2.08;;
56043;SDS011;41912;51.022;3.664;2022-09-24T13:10:52;11.18;;;1.95;;
56043;SDS011;41912;51.022;3.664;2022-09-24T13:13:22;7.93;;;1.77;;
56043;SDS011;41912;51.022;3.664;2022-09-24T13:15:59;8.63;;;1.83;;
56043;SDS011;41912;51.022;3.664;2022-09-24T13:18:41;8.88;;;2.10;;
56043;SDS011;41912;51.022;3.664;2022-09-24T13:21:18;8.05;;;1.52;;
56043;SDS011;41912;51.022;3.664;2022-09-24T13:23:48;15.57;;;1.58;;
56043;SDS011;41912;51.022;3.664;2022-09-24T13:31:24;11.32;;;2.05;;
56043;SDS011;41912;51.022;3.664;2022-09-24T13:33:52;5.72;;;1.35;;
56043;SDS011;41912;51.022;3.664;2022-09-24T13:53:25;7.70;;;1.90;;
56043;SDS011;41912;51.022;3.664;2022-09-24T13:55:50;10.98;;;1.65;;
56043;SDS011;41912;51.022;3.664;2022-09-24T13:58:25;8.30;;;1.30;;
56043;SDS011;41912;51.022;3.664;2022-09-24T14:01:21;8.30;;;1.40;;
56043;SDS011;41912;51.022;3.664;2022-09-24T14:03:52;6.55;;;1.30;;
56043;SDS011;41912;51.022;3.664;2022-09-24T14:06:23;17.20;;;2.03;;
56043;SDS011;41912;51.022;3.664;2022-09-24T14:09:12;6.43;;;1.37;;
56043;SDS011;41912;51.022;3.664;2022-09-24T14:11:56;8.02;;;1.33;;
56043;SDS011;41912;51.022;3.664;2022-09-24T14:14:25;3.78;;;1.02;;
56043;SDS011;41912;51.022;3.664;2022-09-24T14:16:52;4.53;;;1.17;;
56043;SDS011;41912;51.022;3.664;2022-09-24T14:19:29;10.20;;;1.83;;
56043;SDS011;41912;51.022;3.664;2022-09-24T14:21:58;6.95;;;1.35;;
56043;SDS011;41912;51.022;3.664;2022-09-24T14:29:48;8.75;;;1.80;;
56043;SDS011;41912;51.022;3.664;2022-09-24T14:34:52;8.23;;;1.57;;
56043;SDS011;41912;51.022;3.664;2022-09-24T14:37:28;5.03;;;0.90;;
56043;SDS011;41912;51.022;3.664;2022-09-24T14:39:57;6.40;;;1.33;;
56043;SDS011;41912;51.022;3.664;2022-09-24T14:42:35;10.20;;;1.63;;
56043;SDS011;41912;51.022;3.664;2022-09-24T14:45:06;8.07;;;1.13;;
56043;SDS011;41912;51.022;3.664;2022-09-24T14:47:35;8.98;;;1.38;;
56043;SDS011;41912;51.022;3.664;2022-09-24T14:50:01;9.32;;;1.20;;
56043;SDS011;41912;51.022;3.664;2022-09-24T14:57:47;6.50;;;1.40;;
56043;SDS011;41912;51.022;3.664;2022-09-24T15:00:24;3.20;;;0.98;;
56043;SDS011;41912;51.022;3.664;2022-09-24T15:02:57;8.02;;;1.35;;
56043;SDS011;41912;51.022;3.664;2022-09-24T15:05:25;6.10;;;1.00;;
56043;SDS011;41912;51.022;3.664;2022-09-24T15:08:06;10.20;;;1.88;;
56043;SDS011;41912;51.022;3.664;2022-09-24T15:10:36;11.73;;;1.40;;
56043;SDS011;41912;51.022;3.664;2022-09-24T15:13:13;8.98;;;1.50;;
56043;SDS011;41912;51.022;3.664;2022-09-24T15:15:40;7.53;;;1.63;;
56043;SDS011;41912;51.022;3.664;2022-09-24T15:18:09;6.57;;;1.42;;
56043;SDS011;41912;51.022;3.664;2022-09-24T15:20:35;6.82;;;1.45;;
56043;SDS011;41912;51.022;3.664;2022-09-24T15:23:01;5.00;;;1.30;;
56043;SDS011;41912;51.022;3.664;2022-09-24T15:25:27;8.43;;;1.65;;
56043;SDS011;41912;51.022;3.664;2022-09-24T15:27:53;12.00;;;1.40;;
56043;SDS011;41912;51.022;3.664;2022-09-24T15:30:19;9.77;;;1.25;;
56043;SDS011;41912;51.022;3.664;2022-09-24T15:32:46;5.55;;;1.45;;
56043;SDS011;41912;51.022;3.664;2022-09-24T15:35:14;7.72;;;1.55;;
56043;SDS011;41912;51.022;3.664;2022-09-24T15:37:40;8.15;;;1.55;;
56043;SDS011;41912;51.022;3.664;2022-09-24T15:40:08;9.95;;;1.40;;
56043;SDS011;41912;51.022;3.664;2022-09-24T15:42:41;6.88;;;1.85;;
56043;SDS011;41912;51.022;3.664;2022-09-24T15:45:17;7.25;;;1.60;;
56043;SDS011;41912;51.022;3.664;2022-09-24T15:47:45;6.03;;;1.52;;
56043;SDS011;41912;51.022;3.664;2022-09-24T15:50:11;8.40;;;2.03;;
56043;SDS011;41912;51.022;3.664;2022-09-24T15:52:45;7.57;;;1.98;;
56043;SDS011;41912;51.022;3.664;2022-09-24T15:55:16;9.75;;;1.77;;
56043;SDS011;41912;51.022;3.664;2022-09-24T15:57:43;7.63;;;1.63;;
56043;SDS011;41912;51.022;3.664;2022-09-24T16:00:17;8.35;;;1.85;;
56043;SDS011;41912;51.022;3.664;2022-09-24T16:02:46;10.82;;;1.80;;
56043;SDS011;41912;51.022;3.664;2022-09-24T16:05:14;13.75;;;2.25;;
56043;SDS011;41912;51.022;3.664;2022-09-24T16:07:41;12.07;;;2.03;;
56043;SDS011;41912;51.022;3.664;2022-09-24T16:10:07;10.93;;;2.47;;
56043;SDS011;41912;51.022;3.664;2022-09-24T16:12:34;9.68;;;1.52;;
56043;SDS011;41912;51.022;3.664;2022-09-24T16:15:00;12.52;;;3.45;;
56043;SDS011;41912;51.022;3.664;2022-09-24T16:17:26;17.10;;;1.58;;
56043;SDS011;41912;51.022;3.664;2022-09-24T16:19:52;12.85;;;1.73;;
56043;SDS011;41912;51.022;3.664;2022-09-24T16:22:18;8.98;;;1.77;;
56043;SDS011;41912;51.022;3.664;2022-09-24T16:24:44;7.78;;;1.10;;
56043;SDS011;41912;51.022;3.664;2022-09-24T16:27:09;6.97;;;1.73;;
56043;SDS011;41912;51.022;3.664;2022-09-24T16:29:35;7.82;;;1.30;;
56043;SDS011;41912;51.022;3.664;2022-09-24T16:32:01;8.90;;;1.40;;
56043;SDS011;41912;51.022;3.664;2022-09-24T16:34:27;7.05;;;1.52;;
56043;SDS011;41912;51.022;3.664;2022-09-24T16:36:53;8.32;;;1.80;;
56043;SDS011;41912;51.022;3.664;2022-09-24T16:39:19;8.95;;;1.63;;
56043;SDS011;41912;51.022;3.664;2022-09-24T16:41:50;8.10;;;1.70;;
56043;SDS011;41912;51.022;3.664;2022-09-24T16:44:17;12.38;;;1.80;;
56043;SDS011;41912;51.022;3.664;2022-09-24T16:46:43;15.95;;;1.70;;
56043;SDS011;41912;51.022;3.664;2022-09-24T16:49:09;7.03;;;2.13;;
56043;SDS011;41912;51.022;3.664;2022-09-24T16:51:35;7.20;;;1.77;;
56043;SDS011;41912;51.022;3.664;2022-09-24T16:54:02;6.78;;;1.67;;
56043;SDS011;41912;51.022;3.664;2022-09-24T16:56:29;8.05;;;2.17;;
56043;SDS011;41912;51.022;3.664;2022-09-24T16:58:55;9.73;;;2.55;;
56043;SDS011;41912;51.022;3.664;2022-09-24T17:01:21;11.73;;;2.55;;
56043;SDS011;41912;51.022;3.664;2022-09-24T17:03:53;11.32;;;2.60;;
56043;SDS011;41912;51.022;3.664;2022-09-24T17:06:21;10.15;;;3.40;;
56043;SDS011;41912;51.022;3.664;2022-09-24T17:08:54;10.70;;;2.70;;
56043;SDS011;41912;51.022;3.664;2022-09-24T17:11:39;14.20;;;3.45;;
56043;SDS011;41912;51.022;3.664;2022-09-24T17:14:06;12.55;;;2.25;;
56043;SDS011;41912;51.022;3.664;2022-09-24T17:16:33;10.77;;;2.40;;
56043;SDS011;41912;51.022;3.664;2022-09-24T17:18:59;10.07;;;2.72;;
56043;SDS011;41912;51.022;3.664;2022-09-24T17:21:25;13.32;;;2.80;;
56043;SDS011;41912;51.022;3.664;2022-09-24T17:23:51;10.05;;;2.53;;
56043;SDS011;41912;51.022;3.664;2022-09-24T17:26:18;14.80;;;2.88;;
56043;SDS011;41912;51.022;3.664;2022-09-24T17:28:46;8.27;;;2.03;;
56043;SDS011;41912;51.022;3.664;2022-09-24T17:31:16;8.02;;;2.03;;
56043;SDS011;41912;51.022;3.664;2022-09-24T17:33:45;14.70;;;2.42;;
56043;SDS011;41912;51.022;3.664;2022-09-24T17:36:11;13.15;;;2.50;;
56043;SDS011;41912;51.022;3.664;2022-09-24T17:38:39;11.00;;;2.33;;
56043;SDS011;41912;51.022;3.664;2022-09-24T17:43:33;10.25;;;2.08;;
56043;SDS011;41912;51.022;3.664;2022-09-24T17:46:00;8.65;;;2.03;;